sensor_id;sensor_type;location;lat;lon;timestamp;temperature;humidity
8886;DHT22;4479;51.162;13.906;2024-01-30T00:13:12;5.30;98.30
8886;DHT22;4479;51.162;13.906;2024-01-30T00:33:20;5.20;98.60
8886;DHT22;4479;51.162;13.906;2024-01-30T00:53:26;5.10;98.50
8886;DHT22;4479;51.162;13.906;2024-01-30T01:13:32;5.00;98.60
8886;DHT22;4479;51.162;13.906;2024-01-30T01:33:38;4.90;98.60
8886;DHT22;4479;51.162;13.906;2024-01-30T01:53:44;4.80;99.30
8886;DHT22;4479;51.162;13.906;2024-01-30T02:13:50;5.30;99.90
8886;DHT22;4479;51.162;13.906;2024-01-30T02:23:54;4.70;99.90
8886;DHT22;4479;51.162;13.906;2024-01-30T02:44:01;4.70;99.90
8886;DHT22;4479;51.162;13.906;2024-01-30T03:04:07;4.60;99.90
8886;DHT22;4479;51.162;13.906;2024-01-30T03:24:13;4.60;99.90
8886;DHT22;4479;51.162;13.906;2024-01-30T03:44:18;4.70;99.90
8886;DHT22;4479;51.162;13.906;2024-01-30T04:04:24;4.60;99.90
8886;DHT22;4479;51.162;13.906;2024-01-30T04:24:30;4.70;99.90
8886;DHT22;4479;51.162;13.906;2024-01-30T04:44:36;4.70;99.90
8886;DHT22;4479;51.162;13.906;2024-01-30T05:04:42;4.70;99.90
8886;DHT22;4479;51.162;13.906;2024-01-30T05:24:47;4.60;99.90
8886;DHT22;4479;51.162;13.906;2024-01-30T05:44:53;4.60;99.90
8886;DHT22;4479;51.162;13.906;2024-01-30T06:04:59;4.60;99.90
8886;DHT22;4479;51.162;13.906;2024-01-30T06:25:05;4.80;99.90
8886;DHT22;4479;51.162;13.906;2024-01-30T06:35:08;4.60;99.90
8886;DHT22;4479;51.162;13.906;2024-01-30T06:45:12;4.60;99.90
8886;DHT22;4479;51.162;13.906;2024-01-30T07:05:19;4.70;99.90
8886;DHT22;4479;51.162;13.906;2024-01-30T07:25:26;4.90;99.90
8886;DHT22;4479;51.162;13.906;2024-01-30T07:45:33;5.10;99.90
8886;DHT22;4479;51.162;13.906;2024-01-30T08:05:38;5.30;99.90
8886;DHT22;4479;51.162;13.906;2024-01-30T08:25:44;5.50;99.90
8886;DHT22;4479;51.162;13.906;2024-01-30T08:45:49;5.80;99.90
8886;DHT22;4479;51.162;13.906;2024-01-30T09:05:55;6.10;99.90
8886;DHT22;4479;51.162;13.906;2024-01-30T09:46:11;7.00;99.90
8886;DHT22;4479;51.162;13.906;2024-01-30T10:06:18;7.40;99.90
8886;DHT22;4479;51.162;13.906;2024-01-30T10:26:25;7.40;99.20
8886;DHT22;4479;51.162;13.906;2024-01-30T10:36:30;7.60;99.90
8886;DHT22;4479;51.162;13.906;2024-01-30T10:46:46;7.80;99.50
8886;DHT22;4479;51.162;13.906;2024-01-30T11:06:56;8.10;98.90
8886;DHT22;4479;51.162;13.906;2024-01-30T11:27:03;8.30;97.60
8886;DHT22;4479;51.162;13.906;2024-01-30T11:37:12;8.40;97.20
8886;DHT22;4479;51.162;13.906;2024-01-30T11:47:16;8.30;96.20
8886;DHT22;4479;51.162;13.906;2024-01-30T12:07:22;8.20;95.80
8886;DHT22;4479;51.162;13.906;2024-01-30T12:17:26;8.20;96.70
8886;DHT22;4479;51.162;13.906;2024-01-30T12:27:31;8.30;96.10
8886;DHT22;4479;51.162;13.906;2024-01-30T12:47:37;8.20;95.20
8886;DHT22;4479;51.162;13.906;2024-01-30T13:07:43;8.00;94.60
8886;DHT22;4479;51.162;13.906;2024-01-30T13:27:50;7.80;94.60
8886;DHT22;4479;51.162;13.906;2024-01-30T13:47:55;7.70;95.80
8886;DHT22;4479;51.162;13.906;2024-01-30T14:08:03;7.60;95.20
8886;DHT22;4479;51.162;13.906;2024-01-30T14:28:10;7.30;95.00
8886;DHT22;4479;51.162;13.906;2024-01-30T14:48:16;7.10;95.10
8886;DHT22;4479;51.162;13.906;2024-01-30T15:08:22;6.90;95.40
8886;DHT22;4479;51.162;13.906;2024-01-30T15:28:35;6.50;95.10
8886;DHT22;4479;51.162;13.906;2024-01-30T15:48:41;6.10;95.20
8886;DHT22;4479;51.162;13.906;2024-01-30T16:08:51;5.80;95.70
8886;DHT22;4479;51.162;13.906;2024-01-30T16:28:56;5.60;96.30
8886;DHT22;4479;51.162;13.906;2024-01-30T17:09:11;5.50;98.10
8886;DHT22;4479;51.162;13.906;2024-01-30T18:09:33;5.20;98.70
8886;DHT22;4479;51.162;13.906;2024-01-30T18:49:47;5.00;99.20
8886;DHT22;4479;51.162;13.906;2024-01-30T19:09:55;5.00;99.30
8886;DHT22;4479;51.162;13.906;2024-01-30T19:30:00;5.80;99.90
8886;DHT22;4479;51.162;13.906;2024-01-30T19:50:08;5.10;99.90
8886;DHT22;4479;51.162;13.906;2024-01-30T20:00:11;5.10;99.90
8886;DHT22;4479;51.162;13.906;2024-01-30T20:10:15;5.10;99.90
8886;DHT22;4479;51.162;13.906;2024-01-30T20:30:22;5.20;99.90
8886;DHT22;4479;51.162;13.906;2024-01-30T20:50:27;5.20;99.90
8886;DHT22;4479;51.162;13.906;2024-01-30T21:30:39;5.20;99.90
8886;DHT22;4479;51.162;13.906;2024-01-30T21:50:45;5.10;99.90
8886;DHT22;4479;51.162;13.906;2024-01-30T22:10:51;5.10;99.90
8886;DHT22;4479;51.162;13.906;2024-01-30T22:51:03;5.10;99.90
8886;DHT22;4479;51.162;13.906;2024-01-30T23:11:11;1.80;99.90
8886;DHT22;4479;51.162;13.906;2024-01-30T23:31:17;5.30;99.90
8886;DHT22;4479;51.162;13.906;2024-01-30T23:51:23;5.40;99.90
